Pagrindinis puslapis
METAR-TAF:

METAR-TAF

Oro uostai :

Orhusas, Danija

platuma: 56-18N, ilguma: 010-37E, Aukštis: 23 m

Dabartinis oras

Ataskaita buvo paskelbta 34 minutes, ne 02:20 UTC
Ramus vėjas
Temperatūra 13°C
Drėgmė 94%
Slėgis 1026 hPa
Matomumas: 1900 m
rūkana

METAR: EKAH 240220Z AUTO 00000KT 1900NDV R10R/0400D R28L/1100D BR VV004 13/12 Q1026

Laikas: 04:54 (02:54 UTC)

Prognozė

Ataskaita buvo paskelbta 1 valandą ir 59 minutes, ne 00:55 UTC
Prognozė galioja nuo 24 metu 00 UTC su 24 metu 24 UTC
Vėjas 4 kt iš Vakarų
Matomumas 10 km arba daugiau
Mažai debesys ne aukštis 3000 ft
Tapsmas
nuo 24 metu 00 UTC su 24 metu 02 UTC
Matomumas: 0200 m
ne aukštis 100 ft
rūkas
Laikinai
nuo 24 metu 02 UTC su 24 metu 08 UTC
Matomumas: 3000 m
Išsisklaidę debesys ne aukštis 300 ft
rūkana
Tapsmas
nuo 24 metu 08 UTC su 24 metu 10 UTC
Matomumas 10 km arba daugiau
Mažai debesys ne aukštis 3000 ft

TAF: EKAH 240055Z 2400/2424 26004KT 9999 FEW030 BECMG 2400/2402 0200 FG VV001 TEMPO 2402/2408 3000 BR SCT003 BECMG 2408/2410 9999 NSW FEW030

Orai ataskaitas ir orų prognozės (METAR, TAF).

turimą stotys yra geltonos ir raudonos taškus žemėlapyje.

Perkelti pele per norėdami pamatyti stoties vardą.

Tada spustelėkite, norėdami matyti oro stebėjimo ir prognozės.

Norėdami pakeisti žemėlapį: spustelėkite ant žalios mygtukų su juodo kryžiaus žemyn,; žalią mygtuką su brūkšneliu, jei norite nutolinti; arba žalių rodyklių gretimoms žemėlapius.


METAR-TAF: